Autaugaville, Alabama
Current Conditions -  °F | °C
As of 2:35 AM on Sunday 21 Dec 2014 (Local Time) from K1A9 Reporting Station
Overcast Overcast  
Wind Chill: 10°   Ceiling: 1200
Heat Index: 10°   Visibility: 10mi
Dew Point:   Wind: 0mph
Humidity: 89%   Direction: NA
Pressure: 30.16"   Gusts: NA
Location:  32.43°N, 86.65°W
Report Text: K1A9 210835Z AUTO 00000KT 10SM OVC012 10/08 A3016 RMK AO2 T00960079
Loading
Personal Weather Stations






























Interactive Weather Map New forecast layout! Learn more

10-Day Weather Forecast

Advertisements
Track Severe Weather on mobile